createdAt,value
2018-03-02T00:02:22.644Z,18.47
2018-03-02T00:04:51.464Z,18.17
2018-03-02T00:07:21.197Z,25.13
2018-03-02T00:09:50.154Z,13.27
2018-03-02T00:12:19.691Z,19.47
2018-03-02T00:14:48.525Z,12.87
2018-03-02T00:17:17.413Z,19.33
2018-03-02T00:19:46.255Z,13.43
2018-03-02T00:22:15.100Z,13.23
2018-03-02T00:24:43.966Z,12.57
2018-03-02T00:27:12.924Z,17.37
2018-03-02T00:29:42.687Z,11.73
2018-03-02T00:32:11.568Z,19.20
2018-03-02T00:34:40.408Z,12.37
2018-03-02T00:37:09.241Z,13.97
2018-03-02T00:39:38.112Z,11.87
2018-03-02T00:42:07.018Z,17.87
2018-03-02T00:44:36.252Z,12.87
2018-03-02T00:47:05.136Z,10.23
2018-03-02T00:49:33.980Z,13.70
2018-03-02T00:52:02.828Z,16.23
2018-03-02T00:54:31.723Z,13.80
2018-03-02T00:57:00.557Z,11.23
2018-03-02T00:59:29.397Z,16.27
2018-03-02T01:01:58.623Z,13.30
2018-03-02T01:04:27.508Z,11.00
2018-03-02T01:06:56.364Z,9.40
2018-03-02T01:09:25.247Z,13.00
2018-03-02T01:11:54.086Z,15.57
2018-03-02T01:14:22.933Z,12.73
2018-03-02T01:16:51.787Z,9.30
2018-03-02T01:19:20.615Z,15.33
2018-03-02T01:21:49.460Z,16.90
2018-03-02T01:24:18.337Z,16.77
2018-03-02T01:26:47.168Z,14.90
2018-03-02T01:29:16.063Z,21.60
2018-03-02T01:31:44.948Z,20.07
2018-03-02T01:34:13.786Z,20.17
2018-03-02T01:36:42.624Z,15.70
2018-03-02T01:39:11.525Z,21.07
2018-03-02T01:41:40.363Z,17.80
2018-03-02T01:44:09.200Z,15.77
2018-03-02T01:46:38.407Z,21.70
2018-03-02T01:49:07.911Z,26.93
2018-03-02T01:51:42.700Z,15.90
2018-03-02T01:54:11.598Z,16.67
2018-03-02T01:56:40.464Z,12.60
2018-03-02T01:59:09.337Z,20.03
2018-03-02T02:01:38.521Z,28.33
2018-03-02T02:04:07.369Z,21.67
2018-03-02T02:06:36.250Z,23.20
2018-03-02T02:09:05.523Z,16.87
2018-03-02T02:11:34.366Z,22.30
2018-03-02T02:14:03.233Z,17.63
2018-03-02T02:16:32.069Z,19.63
2018-03-02T02:19:00.961Z,23.23
2018-03-02T02:21:30.265Z,23.30
2018-03-02T02:23:59.123Z,17.83
2018-03-02T02:26:27.966Z,12.87
2018-03-02T02:28:56.828Z,13.83
2018-03-02T02:31:25.675Z,21.83
2018-03-02T02:33:54.531Z,14.40
2018-03-02T02:36:23.427Z,17.00
2018-03-02T02:38:52.280Z,15.70
2018-03-02T02:41:21.699Z,21.60
2018-03-02T02:43:51.071Z,10.70
2018-03-02T02:46:19.976Z,24.20
2018-03-02T02:48:48.825Z,26.57
2018-03-02T02:51:17.714Z,10.47
2018-03-02T02:53:46.609Z,12.77
2018-03-02T02:56:15.462Z,23.70
2018-03-02T02:58:44.334Z,21.20
2018-03-02T03:01:13.172Z,15.73
2018-03-02T03:03:42.010Z,22.57
2018-03-02T03:06:11.869Z,25.57
2018-03-02T03:08:40.775Z,25.40
2018-03-02T03:11:09.650Z,25.23
2018-03-02T03:13:39.074Z,16.37
2018-03-02T03:16:07.922Z,16.60
2018-03-02T03:18:36.798Z,30.83
2018-03-02T03:21:05.666Z,22.50
2018-03-02T03:23:34.512Z,15.83
2018-03-02T03:26:03.364Z,24.73
2018-03-02T03:28:32.254Z,18.97
2018-03-02T03:31:01.649Z,19.10
2018-03-02T03:33:31.120Z,20.77
2018-03-02T03:35:59.984Z,28.00
2018-03-02T03:38:28.820Z,16.80
2018-03-02T03:40:57.703Z,17.80
2018-03-02T03:43:26.558Z,21.43
2018-03-02T03:45:55.434Z,23.33
2018-03-02T03:48:24.280Z,26.50
2018-03-02T03:50:53.256Z,20.93
2018-03-02T03:53:22.123Z,21.10
2018-03-02T03:55:50.968Z,18.70
2018-03-02T03:58:19.822Z,20.57
2018-03-02T04:00:48.692Z,25.07
2018-03-02T04:03:17.533Z,26.23
2018-03-02T04:05:46.386Z,21.90
2018-03-02T04:08:15.897Z,13.07
2018-03-02T04:10:44.804Z,17.23
2018-03-02T04:13:13.668Z,21.57
2018-03-02T04:15:43.354Z,13.83
2018-03-02T04:18:12.250Z,23.70
2018-03-02T04:20:41.733Z,17.07
2018-03-02T04:23:10.597Z,24.27
2018-03-02T04:25:39.511Z,26.63
2018-03-02T04:28:08.356Z,17.20
2018-03-02T04:30:37.199Z,19.67
2018-03-02T04:33:06.096Z,21.77
2018-03-02T04:35:34.980Z,27.57
2018-03-02T04:38:04.615Z,28.03
2018-03-02T04:40:33.494Z,11.27
2018-03-02T04:43:03.204Z,22.17
2018-03-02T04:45:32.050Z,21.27
2018-03-02T04:48:00.972Z,19.93
2018-03-02T04:50:29.828Z,24.30
2018-03-02T04:52:58.686Z,15.40
2018-03-02T04:55:27.530Z,10.83
2018-03-02T04:57:56.368Z,23.13
2018-03-02T05:00:25.794Z,18.37
2018-03-02T05:02:54.636Z,24.47
2018-03-02T05:05:23.497Z,23.30
2018-03-02T05:07:53.222Z,17.77
2018-03-02T05:10:22.104Z,24.03
2018-03-02T05:12:51.008Z,28.53
2018-03-02T05:15:19.903Z,26.37
2018-03-02T05:17:48.736Z,18.33
2018-03-02T05:20:17.657Z,22.73
2018-03-02T05:22:46.536Z,16.63
2018-03-02T05:25:15.373Z,19.60
2018-03-02T05:27:45.005Z,19.60
2018-03-02T05:30:13.911Z,28.37
2018-03-02T05:32:42.754Z,22.70
2018-03-02T05:35:11.689Z,23.73
2018-03-02T05:37:40.664Z,28.13
2018-03-02T05:40:10.210Z,26.97
2018-03-02T05:42:39.605Z,20.73
2018-03-02T05:45:08.482Z,19.23
2018-03-02T05:47:37.332Z,17.73
2018-03-02T05:50:06.176Z,24.97
2018-03-02T05:52:35.572Z,13.67
2018-03-02T05:55:04.425Z,26.53
2018-03-02T05:57:33.285Z,17.87
2018-03-02T06:00:02.245Z,26.97
2018-03-02T06:02:31.145Z,22.87
2018-03-02T06:04:59.982Z,18.07
2018-03-02T06:07:28.874Z,19.87
2018-03-02T06:09:57.825Z,22.57
2018-03-02T06:12:26.690Z,30.57
2018-03-02T06:14:55.561Z,21.83
2018-03-02T06:17:24.399Z,20.53
2018-03-02T06:19:54.586Z,23.27
2018-03-02T06:22:25.375Z,27.87
2018-03-02T06:24:54.214Z,22.47
2018-03-02T06:27:23.077Z,29.37
2018-03-02T06:29:51.988Z,25.73
2018-03-02T06:34:59.592Z,15.63
2018-03-02T06:37:31.140Z,26.37
2018-03-02T06:40:10.645Z,26.10
2018-03-02T06:42:47.411Z,26.70
2018-03-02T06:50:29.644Z,24.90
2018-03-02T06:55:48.191Z,28.17
2018-03-02T06:58:17.039Z,25.77
2018-03-02T07:00:49.569Z,20.27
2018-03-02T07:03:24.369Z,25.30
2018-03-02T07:05:53.229Z,15.87
2018-03-02T07:08:22.197Z,29.90
2018-03-02T07:10:51.045Z,22.27
2018-03-02T07:13:20.855Z,35.03
2018-03-02T07:15:50.569Z,22.53
2018-03-02T07:18:19.518Z,21.50
2018-03-02T07:20:48.396Z,27.63
2018-03-02T07:23:17.239Z,30.57
2018-03-02T07:25:46.077Z,23.53
2018-03-02T07:28:15.023Z,31.20
2018-03-02T07:30:43.886Z,20.63
2018-03-02T07:33:12.737Z,38.83
2018-03-02T07:35:42.545Z,31.23
2018-03-02T07:38:11.397Z,26.80
2018-03-02T07:40:40.247Z,22.83
2018-03-02T07:43:09.108Z,17.87
2018-03-02T07:45:37.987Z,33.90
2018-03-02T07:48:07.366Z,29.50
2018-03-02T07:50:36.234Z,40.43
2018-03-02T07:53:05.089Z,31.53
2018-03-02T07:55:33.924Z,19.83
2018-03-02T07:58:02.907Z,28.73
2018-03-02T08:00:31.757Z,33.33
2018-03-02T08:03:00.972Z,26.47
2018-03-02T08:05:29.868Z,32.63
2018-03-02T08:07:59.582Z,27.90
2018-03-02T08:10:28.417Z,15.67
2018-03-02T08:12:57.293Z,22.70
2018-03-02T08:15:26.179Z,23.77
2018-03-02T08:17:55.752Z,33.40
2018-03-02T08:20:24.649Z,26.93
2018-03-02T08:22:53.504Z,33.40
2018-03-02T08:25:22.338Z,27.00
2018-03-02T08:27:51.244Z,25.97
2018-03-02T08:30:20.471Z,21.83
2018-03-02T08:32:49.344Z,26.77
2018-03-02T08:35:18.238Z,19.90
2018-03-02T08:37:47.074Z,20.37
2018-03-02T08:40:17.620Z,38.53
2018-03-02T08:42:46.530Z,33.53
2018-03-02T08:45:15.433Z,24.40
2018-03-02T08:47:44.350Z,20.13
2018-03-02T08:50:14.353Z,28.83
2018-03-02T08:52:43.259Z,25.47
2018-03-02T08:55:12.099Z,21.90
2018-03-02T08:57:41.023Z,25.53
2018-03-02T09:00:09.991Z,29.90
2018-03-02T09:02:39.447Z,32.47
2018-03-02T09:05:08.313Z,34.57
2018-03-02T09:07:37.196Z,17.87
2018-03-02T09:10:06.064Z,31.53
2018-03-02T09:12:34.931Z,28.23
2018-03-02T09:15:03.786Z,23.30
2018-03-02T09:17:32.643Z,27.37
2018-03-02T09:20:01.535Z,35.10
2018-03-02T09:22:30.384Z,29.80
2018-03-02T09:25:00.025Z,25.77
2018-03-02T09:27:28.916Z,32.93
2018-03-02T09:29:58.705Z,30.97
2018-03-02T09:32:27.548Z,22.67
2018-03-02T09:34:56.431Z,28.87
2018-03-02T09:37:25.288Z,27.97
2018-03-02T09:39:54.129Z,31.67
2018-03-02T09:42:23.056Z,26.17
2018-03-02T09:44:51.904Z,35.37
2018-03-02T09:47:20.745Z,27.07
2018-03-02T09:49:49.674Z,37.60
2018-03-02T09:52:19.187Z,26.30
2018-03-02T09:54:48.057Z,38.13
2018-03-02T09:57:16.945Z,43.57
2018-03-02T09:59:45.836Z,16.20
2018-03-02T10:02:14.710Z,26.50
2018-03-02T10:04:43.612Z,19.20
2018-03-02T10:07:12.481Z,25.53
2018-03-02T10:09:41.336Z,27.27
2018-03-02T10:12:10.209Z,29.00
2018-03-02T10:14:39.053Z,25.43
2018-03-02T10:17:07.948Z,24.83
2018-03-02T10:19:36.829Z,26.57
2018-03-02T10:22:05.739Z,36.00
2018-03-02T10:24:34.611Z,28.73
2018-03-02T10:27:03.615Z,24.57
2018-03-02T10:29:32.475Z,25.33
2018-03-02T10:32:01.404Z,28.00
2018-03-02T10:34:30.276Z,27.57
2018-03-02T10:36:59.145Z,36.07
2018-03-02T10:39:28.145Z,37.83
2018-03-02T10:41:57.053Z,19.73
2018-03-02T10:44:25.927Z,33.70
2018-03-02T10:46:54.774Z,20.87
2018-03-02T10:49:23.708Z,28.93
2018-03-02T10:51:52.573Z,23.53
2018-03-02T10:54:21.437Z,26.43
2018-03-02T10:56:50.308Z,25.13
2018-03-02T10:59:19.141Z,17.73
2018-03-02T11:01:54.049Z,35.60
2018-03-02T11:04:29.149Z,26.80
2018-03-02T11:06:58.059Z,33.30
2018-03-02T11:09:26.907Z,28.13
2018-03-02T11:11:55.783Z,27.13
2018-03-02T11:14:24.686Z,38.57
2018-03-02T11:16:53.532Z,28.87
2018-03-02T11:19:22.388Z,26.93
2018-03-02T11:21:51.331Z,36.33
2018-03-02T11:24:20.200Z,29.03
2018-03-02T11:26:49.070Z,23.90
2018-03-02T11:29:17.969Z,37.07
2018-03-02T11:31:46.825Z,34.33
2018-03-02T11:34:15.720Z,34.57
2018-03-02T11:36:45.507Z,34.90
2018-03-02T11:39:14.352Z,29.57
2018-03-02T11:41:47.245Z,23.40
2018-03-02T11:44:16.121Z,30.97
2018-03-02T11:46:44.973Z,35.40
2018-03-02T11:49:13.850Z,37.73
2018-03-02T11:51:42.704Z,29.67
2018-03-02T11:54:11.774Z,26.73
2018-03-02T11:56:41.013Z,38.50
2018-03-02T11:59:09.900Z,16.47
2018-03-02T12:01:38.759Z,32.10
2018-03-02T12:04:07.657Z,40.93
2018-03-02T12:06:36.589Z,35.53
2018-03-02T12:09:05.473Z,30.17
2018-03-02T12:11:34.437Z,41.50
2018-03-02T12:14:03.491Z,30.67
2018-03-02T12:16:32.409Z,31.63
2018-03-02T12:19:01.307Z,33.43
2018-03-02T12:21:30.202Z,27.10
2018-03-02T12:24:00.077Z,37.53
2018-03-02T12:26:28.956Z,29.07
2018-03-02T12:28:57.832Z,36.57
2018-03-02T12:31:26.780Z,26.87
2018-03-02T12:33:55.664Z,29.20
2018-03-02T12:36:24.611Z,28.07
2018-03-02T12:38:54.392Z,30.30
2018-03-02T12:41:23.331Z,29.60
2018-03-02T12:43:52.271Z,25.00
2018-03-02T12:46:21.379Z,32.13
2018-03-02T12:48:50.941Z,38.40
2018-03-02T12:51:22.462Z,41.90
2018-03-02T12:53:52.172Z,28.53
2018-03-02T12:56:22.073Z,40.07
2018-03-02T12:58:53.705Z,43.73
2018-03-02T13:01:29.381Z,41.93
2018-03-02T13:04:03.488Z,30.67
2018-03-02T13:06:32.341Z,45.20
2018-03-02T13:09:01.207Z,33.17
2018-03-02T13:11:30.124Z,40.53
2018-03-02T13:13:59.819Z,36.53
2018-03-02T13:16:28.741Z,44.90
2018-03-02T13:18:57.637Z,37.13
2018-03-02T13:21:26.497Z,41.77
2018-03-02T13:23:55.368Z,36.27
2018-03-02T13:26:32.909Z,35.37
2018-03-02T13:29:01.871Z,41.17
2018-03-02T13:31:31.053Z,27.53
2018-03-02T13:34:05.953Z,20.83
2018-03-02T13:36:34.811Z,34.63
2018-03-02T13:39:03.723Z,30.47
2018-03-02T13:41:38.770Z,29.90
2018-03-02T13:44:07.647Z,27.20
2018-03-02T13:46:36.537Z,30.77
2018-03-02T13:49:13.375Z,47.07
2018-03-02T13:51:42.268Z,34.00
2018-03-02T13:54:11.114Z,26.23
2018-03-02T13:56:45.863Z,32.87
2018-03-02T13:59:14.748Z,40.83
2018-03-02T14:01:43.625Z,27.13
2018-03-02T14:04:18.410Z,37.83
2018-03-02T14:06:47.261Z,39.57
2018-03-02T14:09:16.175Z,43.07
2018-03-02T14:11:45.103Z,41.20
2018-03-02T14:14:13.967Z,39.20
2018-03-02T14:16:43.659Z,31.93
2018-03-02T14:21:47.981Z,45.27
2018-03-02T14:24:16.849Z,29.40
2018-03-02T14:26:45.699Z,36.77
2018-03-02T14:29:14.544Z,38.00
2018-03-02T14:31:43.399Z,35.90
2018-03-02T14:34:12.996Z,36.17
2018-03-02T14:36:41.875Z,37.17
2018-03-02T14:39:12.440Z,37.60
2018-03-02T14:44:20.702Z,37.37
2018-03-02T14:46:49.565Z,43.67
2018-03-02T14:49:22.168Z,34.63
2018-03-02T14:51:51.062Z,36.50
2018-03-02T14:54:19.958Z,41.97
2018-03-02T14:56:48.811Z,42.27
2018-03-02T14:59:17.706Z,42.67
2018-03-02T15:01:46.554Z,36.07
2018-03-02T15:04:15.403Z,37.37
2018-03-02T15:06:44.309Z,38.80
2018-03-02T15:09:14.031Z,44.77
2018-03-02T15:11:42.872Z,39.23
2018-03-02T15:14:13.307Z,41.90
2018-03-02T15:16:42.812Z,42.90
2018-03-02T15:19:11.675Z,41.87
2018-03-02T15:21:40.734Z,36.23
2018-03-02T15:24:09.581Z,43.53
2018-03-02T15:26:39.014Z,36.87
2018-03-02T15:29:07.892Z,42.20
2018-03-02T15:34:14.503Z,33.87
2018-03-02T15:36:43.408Z,40.63
2018-03-02T15:39:13.144Z,39.57
2018-03-02T15:41:42.014Z,39.40
2018-03-02T15:44:11.026Z,33.13
2018-03-02T15:46:39.965Z,44.73
2018-03-02T15:49:09.712Z,41.03
2018-03-02T15:51:38.559Z,38.47
2018-03-02T15:54:08.158Z,41.93
2018-03-02T15:56:37.042Z,48.40
2018-03-02T15:59:05.899Z,42.37
2018-03-02T16:01:34.804Z,41.87
2018-03-02T16:04:03.675Z,40.70
2018-03-02T16:06:32.562Z,41.70
2018-03-02T16:09:01.491Z,43.30
2018-03-02T16:11:30.368Z,45.03
2018-03-02T16:13:59.216Z,22.87
2018-03-02T16:16:28.098Z,27.70
2018-03-02T16:18:56.968Z,50.80
2018-03-02T16:21:25.872Z,41.03
2018-03-02T16:23:54.780Z,40.20
2018-03-02T16:26:24.602Z,42.43
2018-03-02T16:28:53.446Z,33.10
2018-03-02T16:31:22.372Z,45.13
2018-03-02T16:33:51.236Z,42.77
2018-03-02T16:36:20.216Z,45.27
2018-03-02T16:38:49.091Z,39.60
2018-03-02T16:41:18.000Z,39.10
2018-03-02T16:43:46.878Z,37.57
2018-03-02T16:46:15.738Z,40.57
2018-03-02T16:48:44.592Z,43.80
2018-03-02T16:51:13.584Z,44.03
2018-03-02T16:53:42.436Z,42.60
2018-03-02T16:56:11.767Z,30.43
2018-03-02T16:58:40.682Z,34.40
2018-03-02T17:01:09.564Z,41.67
2018-03-02T17:03:38.681Z,39.73
2018-03-02T17:06:07.560Z,48.20
2018-03-02T17:08:36.450Z,40.43
2018-03-02T17:11:05.352Z,41.90
2018-03-02T17:13:34.246Z,47.47
2018-03-02T17:16:03.182Z,46.67
2018-03-02T17:18:32.057Z,33.83
2018-03-02T17:21:00.970Z,37.53
2018-03-02T17:23:29.845Z,42.20
2018-03-02T17:25:59.655Z,45.77
2018-03-02T17:28:28.554Z,38.47
2018-03-02T17:30:57.421Z,43.63
2018-03-02T17:33:26.376Z,28.70
2018-03-02T17:35:55.296Z,30.50
2018-03-02T17:38:25.051Z,34.77
2018-03-02T17:40:55.749Z,42.40
2018-03-02T17:43:25.720Z,45.50
2018-03-02T17:45:55.404Z,35.83
2018-03-02T17:48:24.268Z,34.40
2018-03-02T17:50:53.969Z,33.83
2018-03-02T17:53:22.865Z,37.10
2018-03-02T17:55:51.723Z,33.70
2018-03-02T17:58:20.560Z,37.93
2018-03-02T18:00:49.427Z,28.37
2018-03-02T18:03:19.234Z,31.80
2018-03-02T18:05:49.058Z,31.63
2018-03-02T18:08:24.570Z,44.57
2018-03-02T18:10:54.832Z,26.67
2018-03-02T18:13:23.685Z,38.50
2018-03-02T18:15:52.539Z,42.10
2018-03-02T18:18:21.421Z,43.90
2018-03-02T18:20:53.078Z,43.67
2018-03-02T18:23:23.885Z,18.70
2018-03-02T18:25:53.390Z,36.13
2018-03-02T18:28:22.281Z,37.30
2018-03-02T18:30:51.156Z,33.90
2018-03-02T18:33:19.996Z,31.10
2018-03-02T18:35:48.832Z,43.40
2018-03-02T18:38:17.702Z,41.03
2018-03-02T18:40:46.570Z,41.63
2018-03-02T18:43:15.440Z,33.40
2018-03-02T18:45:44.316Z,44.13
2018-03-02T18:48:13.176Z,45.43
2018-03-02T18:50:42.042Z,43.70
2018-03-02T18:53:10.970Z,41.60
2018-03-02T18:55:39.816Z,43.17
2018-03-02T18:58:08.684Z,44.53
2018-03-02T19:00:37.558Z,42.27
2018-03-02T19:03:06.420Z,44.10
2018-03-02T19:05:35.295Z,45.50
2018-03-02T19:08:04.247Z,50.13
2018-03-02T19:10:33.110Z,46.20
2018-03-02T19:13:01.972Z,53.93
2018-03-02T19:15:30.939Z,44.60
2018-03-02T19:17:59.856Z,49.73
2018-03-02T19:20:28.744Z,44.80
2018-03-02T19:22:57.632Z,49.33
2018-03-02T19:25:26.486Z,57.07
2018-03-02T19:27:55.350Z,58.43
2018-03-02T19:30:24.309Z,63.60
2018-03-02T19:32:53.237Z,52.80
2018-03-02T19:35:22.282Z,56.50
2018-03-02T19:37:51.227Z,52.67
2018-03-02T19:40:20.291Z,41.77
2018-03-02T19:42:49.447Z,45.60
2018-03-02T19:45:18.587Z,58.30
2018-03-02T19:47:47.709Z,60.50
2018-03-02T19:50:16.901Z,55.17
2018-03-02T19:52:45.844Z,58.57
2018-03-02T19:55:15.041Z,49.37
2018-03-02T19:57:43.908Z,60.90
2018-03-02T20:00:12.798Z,43.00
2018-03-02T20:02:41.671Z,63.23
2018-03-02T20:05:10.795Z,45.77
2018-03-02T20:07:40.524Z,61.33
2018-03-02T20:10:09.381Z,67.83
2018-03-02T20:12:39.087Z,61.17
2018-03-02T20:15:08.296Z,63.67
2018-03-02T20:17:37.477Z,62.27
2018-03-02T20:20:06.382Z,61.70
2018-03-02T20:22:35.519Z,62.80
2018-03-02T20:25:04.457Z,63.77
2018-03-02T20:27:33.374Z,59.87
2018-03-02T20:30:02.524Z,68.80
2018-03-02T20:32:33.571Z,60.90
2018-03-02T20:35:03.415Z,64.27
2018-03-02T20:37:32.341Z,55.13
2018-03-02T20:40:01.563Z,67.60
2018-03-02T20:42:31.151Z,55.93
2018-03-02T20:45:00.053Z,62.83
2018-03-02T20:47:28.917Z,61.00
2018-03-02T20:49:57.867Z,61.47
2018-03-02T20:52:26.718Z,58.07
2018-03-02T20:54:55.685Z,59.60
2018-03-02T20:57:24.579Z,59.80
2018-03-02T20:59:53.466Z,58.30
2018-03-02T21:02:22.416Z,69.47
2018-03-02T21:04:51.303Z,55.13
2018-03-02T21:07:20.552Z,60.67
2018-03-02T21:09:49.451Z,76.63
2018-03-02T21:12:18.655Z,71.83
2018-03-02T21:14:51.487Z,62.47
2018-03-02T21:17:20.780Z,64.43
2018-03-02T21:19:51.175Z,66.53
2018-03-02T21:22:20.631Z,75.23
2018-03-02T21:32:40.023Z,67.67
2018-03-02T21:35:09.158Z,66.97
2018-03-02T21:37:38.063Z,78.40
2018-03-02T21:40:06.980Z,65.90
2018-03-02T21:42:35.871Z,67.57
2018-03-02T21:45:04.785Z,76.97
2018-03-02T21:47:33.669Z,70.83
2018-03-02T21:50:03.524Z,61.87
2018-03-02T21:52:33.014Z,80.23
2018-03-02T21:55:02.053Z,82.10
2018-03-02T21:57:31.261Z,68.93
2018-03-02T22:00:00.397Z,67.27
2018-03-02T22:02:29.324Z,54.33
2018-03-02T22:04:58.253Z,80.13
2018-03-02T22:07:27.160Z,82.10
2018-03-02T22:09:56.275Z,82.93
2018-03-02T22:12:25.219Z,65.37
2018-03-02T22:14:54.857Z,77.47
2018-03-02T22:17:24.568Z,70.93
2018-03-02T22:19:54.137Z,68.30
2018-03-02T22:22:23.139Z,77.60
2018-03-02T22:27:25.251Z,62.00
2018-03-02T22:29:54.992Z,49.63
2018-03-02T22:37:33.547Z,81.80
2018-03-02T22:40:02.420Z,82.63
2018-03-02T22:45:07.187Z,83.87
2018-03-02T22:47:36.063Z,62.50
2018-03-02T22:50:05.027Z,82.47
2018-03-02T22:52:33.882Z,58.37
2018-03-02T22:55:02.818Z,85.03
2018-03-02T22:57:32.547Z,92.87
2018-03-02T23:02:47.820Z,87.50
2018-03-02T23:05:16.663Z,72.70
2018-03-02T23:07:45.595Z,87.83
2018-03-02T23:10:14.456Z,81.37
2018-03-02T23:12:43.371Z,90.13
2018-03-02T23:15:12.224Z,84.77
2018-03-02T23:17:41.142Z,83.63
2018-03-02T23:20:09.992Z,84.10
2018-03-02T23:22:39.517Z,78.30
2018-03-02T23:25:09.423Z,96.57
2018-03-02T23:27:38.287Z,68.80
2018-03-02T23:30:07.147Z,87.50
2018-03-02T23:32:36.038Z,82.40
2018-03-02T23:35:04.895Z,74.67
2018-03-02T23:37:33.736Z,81.70
2018-03-02T23:40:02.606Z,84.00
2018-03-02T23:42:31.473Z,86.73
2018-03-02T23:45:00.376Z,88.97
2018-03-02T23:47:29.222Z,86.57
2018-03-02T23:49:58.835Z,91.37
2018-03-02T23:52:27.760Z,87.40
2018-03-02T23:54:56.603Z,82.33
2018-03-02T23:57:25.460Z,78.53
2018-03-02T23:59:54.364Z,89.47
